createdAt,value
2023-04-19T00:02:06.822Z,3.78
2023-04-19T00:04:33.900Z,5.03
2023-04-19T00:09:36.285Z,3.55
2023-04-19T00:12:06.995Z,6.05
2023-04-19T00:14:33.576Z,4.72
2023-04-19T00:17:00.269Z,4.80
2023-04-19T00:19:27.292Z,4.80
2023-04-19T00:22:17.736Z,3.75
2023-04-19T00:25:08.964Z,5.22
2023-04-19T00:27:55.538Z,5.53
2023-04-19T00:30:22.095Z,5.28
2023-04-19T00:32:48.867Z,4.95
2023-04-19T00:35:15.512Z,4.80
2023-04-19T00:37:42.138Z,4.15
2023-04-19T00:40:12.180Z,3.75
2023-04-19T00:42:59.408Z,6.15
2023-04-19T00:45:26.247Z,4.72
2023-04-19T00:47:53.903Z,6.50
2023-04-19T00:50:21.075Z,3.55
2023-04-19T00:53:34.422Z,4.68
2023-04-19T00:56:22.725Z,7.45
2023-04-19T00:58:49.460Z,4.37
2023-04-19T01:01:16.247Z,5.65
2023-04-19T01:03:43.305Z,5.05
2023-04-19T01:06:10.388Z,5.07
2023-04-19T01:08:36.982Z,4.25
2023-04-19T01:13:59.863Z,3.95
2023-04-19T01:16:27.236Z,4.25
2023-04-19T01:18:56.240Z,5.80
2023-04-19T01:29:28.557Z,5.80
2023-04-19T01:31:55.122Z,4.43
2023-04-19T01:34:23.215Z,5.95
2023-04-19T01:36:49.982Z,5.82
2023-04-19T01:39:16.814Z,6.25
2023-04-19T01:44:18.680Z,6.30
2023-04-19T01:46:47.607Z,7.40
2023-04-19T01:49:14.229Z,6.00
2023-04-19T01:51:40.962Z,14.70
2023-04-19T01:54:07.627Z,4.80
2023-04-19T01:57:32.445Z,3.95
2023-04-19T02:00:24.157Z,4.72
2023-04-19T02:02:51.871Z,4.25
2023-04-19T02:05:18.551Z,4.72
2023-04-19T02:07:45.224Z,4.50
2023-04-19T02:12:52.625Z,3.97
2023-04-19T02:15:19.212Z,6.35
2023-04-19T02:17:46.723Z,4.37
2023-04-19T02:20:13.309Z,6.40
2023-04-19T02:22:39.911Z,5.20
2023-04-19T02:25:06.995Z,5.12
2023-04-19T02:27:35.185Z,4.47
2023-04-19T02:30:02.271Z,3.90
2023-04-19T02:32:28.876Z,6.43
2023-04-19T02:34:55.441Z,4.68
2023-04-19T02:38:00.633Z,5.40
2023-04-19T02:40:47.014Z,3.83
2023-04-19T02:43:13.619Z,6.47
2023-04-19T02:45:41.204Z,4.65
2023-04-19T02:48:07.861Z,3.65
2023-04-19T02:50:37.407Z,5.72
2023-04-19T02:53:03.960Z,5.32
2023-04-19T02:58:05.828Z,5.53
2023-04-19T03:00:32.673Z,4.30
2023-04-19T03:02:59.399Z,5.20
2023-04-19T03:05:26.285Z,7.57
2023-04-19T03:08:18.926Z,5.72
2023-04-19T03:11:01.342Z,6.00
2023-04-19T03:13:27.878Z,5.65
2023-04-19T03:15:54.447Z,4.80
2023-04-19T03:18:21.742Z,6.55
2023-04-19T03:20:48.362Z,6.40
2023-04-19T03:23:14.943Z,5.55
2023-04-19T03:28:16.750Z,5.07
2023-04-19T03:30:43.484Z,6.68
2023-04-19T03:33:10.163Z,6.90
2023-04-19T03:35:36.781Z,5.65
2023-04-19T03:38:03.336Z,8.13
2023-04-19T03:41:13.365Z,9.13
2023-04-19T03:44:23.383Z,12.68
2023-04-19T03:46:49.937Z,21.92
2023-04-19T03:49:16.478Z,16.20
2023-04-19T03:51:43.056Z,11.75
2023-04-19T03:54:10.157Z,8.88
2023-04-19T03:56:36.738Z,7.68
2023-04-19T03:59:03.310Z,6.60
2023-04-19T04:01:46.135Z,7.53
2023-04-19T04:04:13.225Z,5.45
2023-04-19T04:06:40.235Z,7.87
2023-04-19T04:09:06.829Z,7.25
2023-04-19T04:11:55.284Z,7.43
2023-04-19T04:14:42.169Z,4.03
2023-04-19T04:17:08.754Z,5.82
2023-04-19T04:19:35.339Z,5.53
2023-04-19T04:22:01.964Z,6.60
2023-04-19T04:24:28.557Z,6.47
2023-04-19T04:26:57.924Z,8.07
2023-04-19T04:29:24.602Z,5.90
2023-04-19T04:31:51.407Z,6.12
2023-04-19T04:34:18.087Z,5.53
2023-04-19T04:36:44.795Z,5.20
2023-04-19T04:39:12.406Z,7.30
2023-04-19T04:41:42.178Z,6.82
2023-04-19T04:44:12.674Z,7.43
2023-04-19T04:46:39.585Z,5.70
2023-04-19T04:49:06.590Z,11.18
2023-04-19T04:51:33.210Z,5.45
2023-04-19T04:53:59.851Z,8.57
2023-04-19T04:56:27.112Z,5.85
2023-04-19T04:58:53.891Z,5.53
2023-04-19T05:01:21.673Z,5.20
2023-04-19T05:03:48.324Z,8.48
2023-04-19T05:06:14.937Z,8.10
2023-04-19T05:08:41.613Z,7.35
2023-04-19T05:11:08.871Z,7.70
2023-04-19T05:13:35.737Z,9.00
2023-04-19T05:16:02.486Z,4.80
2023-04-19T05:18:29.126Z,6.00
2023-04-19T05:20:57.232Z,6.95
2023-04-19T05:23:23.803Z,8.55
2023-04-19T05:25:50.540Z,5.78
2023-04-19T05:28:17.128Z,6.90
2023-04-19T05:30:43.910Z,6.25
2023-04-19T05:33:10.512Z,8.15
2023-04-19T05:35:37.052Z,8.00
2023-04-19T05:38:03.627Z,6.57
2023-04-19T05:40:30.435Z,6.32
2023-04-19T05:42:56.982Z,5.95
2023-04-19T05:45:23.737Z,6.65
2023-04-19T05:47:50.628Z,5.60
2023-04-19T05:50:18.515Z,5.57
2023-04-19T05:52:45.092Z,5.87
2023-04-19T05:55:11.714Z,6.85
2023-04-19T05:57:38.303Z,6.57
2023-04-19T06:00:05.457Z,6.55
2023-04-19T06:02:32.242Z,6.35
2023-04-19T06:05:02.478Z,5.28
2023-04-19T06:07:34.128Z,7.72
2023-04-19T06:10:02.528Z,4.70
2023-04-19T06:12:29.190Z,4.47
2023-04-19T06:14:55.879Z,7.70
2023-04-19T06:17:25.291Z,7.30
2023-04-19T06:19:53.182Z,4.22
2023-04-19T06:22:20.512Z,5.43
2023-04-19T06:24:47.969Z,5.90
2023-04-19T06:27:16.798Z,5.22
2023-04-19T06:29:43.387Z,5.78
2023-04-19T06:32:11.863Z,9.68
2023-04-19T06:34:38.442Z,7.20
2023-04-19T06:37:05.084Z,5.82
2023-04-19T06:39:31.614Z,5.87
2023-04-19T06:42:05.603Z,7.22
2023-04-19T06:44:32.167Z,6.95
2023-04-19T06:46:58.778Z,9.95
2023-04-19T06:49:25.441Z,8.07
2023-04-19T06:51:52.066Z,6.03
2023-04-19T06:54:18.762Z,6.18
2023-04-19T06:56:50.465Z,6.87
2023-04-19T06:59:19.948Z,8.40
2023-04-19T07:01:47.625Z,6.45
2023-04-19T07:04:15.104Z,5.72
2023-04-19T07:06:42.303Z,4.90
2023-04-19T07:09:08.911Z,5.68
2023-04-19T07:11:35.596Z,6.47
2023-04-19T07:17:06.169Z,4.87
2023-04-19T07:19:53.080Z,4.75
2023-04-19T07:22:19.646Z,4.60
2023-04-19T07:24:46.273Z,7.65
2023-04-19T07:27:14.421Z,4.45
2023-04-19T07:33:52.824Z,5.18
2023-04-19T07:36:19.773Z,4.60
2023-04-19T07:38:46.336Z,5.90
2023-04-19T07:41:13.019Z,3.25
2023-04-19T07:43:40.618Z,5.50
2023-04-19T07:46:12.049Z,5.60
2023-04-19T07:48:38.913Z,4.87
2023-04-19T07:51:10.402Z,6.18
2023-04-19T07:53:38.063Z,8.15
2023-04-19T07:56:05.027Z,10.00
2023-04-19T07:58:31.666Z,7.68
2023-04-19T08:00:58.526Z,9.45
2023-04-19T08:03:25.419Z,7.28
2023-04-19T08:05:52.294Z,6.62
2023-04-19T08:08:19.169Z,6.87
2023-04-19T08:10:47.628Z,6.80
2023-04-19T08:13:14.190Z,6.32
2023-04-19T08:18:10.197Z,5.03
2023-04-19T08:20:36.959Z,4.53
2023-04-19T08:23:10.836Z,7.25
2023-04-19T08:25:51.014Z,6.87
2023-04-19T08:28:18.654Z,4.68
2023-04-19T08:30:45.332Z,7.20
2023-04-19T08:33:11.959Z,5.75
2023-04-19T08:35:41.398Z,5.00
2023-04-19T08:38:08.944Z,6.12
2023-04-19T08:40:35.740Z,6.87
2023-04-19T08:43:06.994Z,5.00
2023-04-19T08:45:34.534Z,5.47
2023-04-19T08:48:02.580Z,5.20
2023-04-19T08:50:35.880Z,7.22
2023-04-19T08:53:23.691Z,5.68
2023-04-19T08:56:10.778Z,4.75
2023-04-19T08:58:57.678Z,4.50
2023-04-19T09:01:35.422Z,8.88
2023-04-19T09:04:21.628Z,7.35
2023-04-19T09:06:55.224Z,6.50
2023-04-19T09:11:59.971Z,7.82
2023-04-19T09:14:29.277Z,6.57
2023-04-19T09:17:15.873Z,8.07
2023-04-19T09:19:47.253Z,9.05
2023-04-19T09:22:14.720Z,8.23
2023-04-19T09:27:12.434Z,12.77
2023-04-19T09:29:39.627Z,12.20
2023-04-19T09:32:06.487Z,6.00
2023-04-19T09:34:33.586Z,7.93
2023-04-19T09:37:33.070Z,8.80
2023-04-19T09:40:27.874Z,9.80
2023-04-19T09:43:08.848Z,7.22
2023-04-19T09:45:41.924Z,7.45
2023-04-19T09:48:09.647Z,9.73
2023-04-19T09:53:20.651Z,7.53
2023-04-19T09:55:57.763Z,8.15
2023-04-19T09:58:34.354Z,7.20
2023-04-19T10:01:16.279Z,7.65
2023-04-19T10:03:46.646Z,5.93
2023-04-19T10:06:36.008Z,8.13
2023-04-19T10:09:04.859Z,8.77
2023-04-19T10:11:42.979Z,6.85
2023-04-19T10:14:12.102Z,7.65
2023-04-19T10:16:39.356Z,7.05
2023-04-19T10:19:10.014Z,7.80
2023-04-19T10:21:38.314Z,6.25
2023-04-19T10:24:05.806Z,7.70
2023-04-19T10:27:07.940Z,9.80
2023-04-19T10:30:00.192Z,8.13
2023-04-19T10:32:37.345Z,9.47
2023-04-19T10:35:37.663Z,11.30
2023-04-19T10:38:16.511Z,15.18
2023-04-19T10:40:56.032Z,12.43
2023-04-19T10:43:24.628Z,12.45
2023-04-19T10:46:19.989Z,11.10
2023-04-19T10:49:14.860Z,12.57
2023-04-19T10:51:49.832Z,15.25
2023-04-19T10:54:34.364Z,10.32
2023-04-19T10:57:11.838Z,11.35
2023-04-19T10:59:44.312Z,11.75
2023-04-19T11:02:23.026Z,11.40
2023-04-19T11:04:52.434Z,14.07
2023-04-19T11:07:21.338Z,12.05
2023-04-19T11:09:49.730Z,12.80
2023-04-19T11:12:20.986Z,11.32
2023-04-19T11:14:57.583Z,13.07
2023-04-19T11:17:31.169Z,10.63
2023-04-19T11:20:03.557Z,9.10
2023-04-19T11:22:33.047Z,12.27
2023-04-19T11:25:07.284Z,10.05
2023-04-19T11:27:34.788Z,12.20
2023-04-19T11:30:19.601Z,11.55
2023-04-19T11:32:50.454Z,11.05
2023-04-19T11:35:21.729Z,10.73
2023-04-19T11:37:48.649Z,9.82
2023-04-19T11:40:17.457Z,9.63
2023-04-19T11:42:44.512Z,13.75
2023-04-19T11:45:25.857Z,12.68
2023-04-19T11:47:56.210Z,13.20
2023-04-19T11:50:45.574Z,12.27
2023-04-19T11:53:21.592Z,12.80
2023-04-19T11:55:53.548Z,12.05
2023-04-19T11:58:33.906Z,14.93
2023-04-19T12:01:08.959Z,15.43
2023-04-19T12:06:37.042Z,12.50
2023-04-19T12:09:08.780Z,13.73
2023-04-19T12:11:50.537Z,13.73
2023-04-19T12:14:56.397Z,15.35
2023-04-19T12:20:46.617Z,16.20
2023-04-19T12:23:16.804Z,13.27
2023-04-19T12:25:46.384Z,13.82
2023-04-19T12:28:25.103Z,16.12
2023-04-19T12:30:53.575Z,14.55
2023-04-19T12:36:16.130Z,14.43
2023-04-19T12:38:42.982Z,14.30
2023-04-19T12:41:09.727Z,14.13
2023-04-19T12:43:36.353Z,12.70
2023-04-19T12:46:02.963Z,13.43
2023-04-19T12:48:57.401Z,12.43
2023-04-19T12:51:49.584Z,12.18
2023-04-19T12:54:23.640Z,12.70
2023-04-19T12:56:50.244Z,11.70
2023-04-19T12:59:17.412Z,11.60
2023-04-19T13:01:44.283Z,11.48
2023-04-19T13:04:12.042Z,10.95
2023-04-19T13:06:39.904Z,12.77
2023-04-19T13:09:14.204Z,12.77
2023-04-19T13:11:41.390Z,9.77
2023-04-19T13:14:08.332Z,10.50
2023-04-19T13:16:34.973Z,11.90
2023-04-19T13:19:01.686Z,9.52
2023-04-19T13:21:28.459Z,11.25
2023-04-19T13:23:55.204Z,10.20
2023-04-19T13:26:22.079Z,8.07
2023-04-19T13:28:48.716Z,10.82
2023-04-19T13:31:15.545Z,9.20
2023-04-19T13:33:42.246Z,12.37
2023-04-19T13:36:09.048Z,13.80
2023-04-19T13:38:40.762Z,13.27
2023-04-19T13:41:08.951Z,16.20
2023-04-19T13:43:35.717Z,13.82
2023-04-19T13:46:02.274Z,17.37
2023-04-19T13:48:29.122Z,14.38
2023-04-19T13:50:56.627Z,15.10
2023-04-19T13:53:24.221Z,13.40
2023-04-19T13:55:51.157Z,15.27
2023-04-19T13:58:17.919Z,14.40
2023-04-19T14:00:45.095Z,13.93
2023-04-19T14:03:12.106Z,13.80
2023-04-19T14:05:38.716Z,15.68
2023-04-19T14:08:08.457Z,14.73
2023-04-19T14:10:36.320Z,13.20
2023-04-19T14:13:03.339Z,16.33
2023-04-19T14:15:29.989Z,12.25
2023-04-19T14:17:57.225Z,13.25
2023-04-19T14:20:23.809Z,12.20
2023-04-19T14:22:51.922Z,13.82
2023-04-19T14:25:18.488Z,13.70
2023-04-19T14:27:45.493Z,13.50
2023-04-19T14:30:12.465Z,13.90
2023-04-19T14:32:39.217Z,11.77
2023-04-19T14:35:06.291Z,16.00
2023-04-19T14:37:32.900Z,12.00
2023-04-19T14:39:59.498Z,13.95
2023-04-19T14:42:26.060Z,12.65
2023-04-19T14:44:52.765Z,11.88
2023-04-19T14:47:20.101Z,15.43
2023-04-19T14:49:47.181Z,12.73
2023-04-19T14:52:13.793Z,12.10
2023-04-19T14:54:40.454Z,11.65
2023-04-19T14:57:07.005Z,13.02
2023-04-19T14:59:33.655Z,14.60
2023-04-19T15:02:00.218Z,12.35
2023-04-19T15:04:26.958Z,15.02
2023-04-19T15:06:53.587Z,11.52
2023-04-19T15:09:20.150Z,11.80
2023-04-19T15:11:46.991Z,13.30
2023-04-19T15:14:13.801Z,12.43
2023-04-19T15:16:40.458Z,12.23
2023-04-19T15:19:07.536Z,10.48
2023-04-19T15:21:34.642Z,14.23
2023-04-19T15:24:22.901Z,11.85
2023-04-19T15:26:49.602Z,14.43
2023-04-19T15:29:16.345Z,12.27
2023-04-19T15:31:43.262Z,12.93
2023-04-19T15:34:40.769Z,10.95
2023-04-19T15:37:43.493Z,11.57
2023-04-19T15:40:12.648Z,10.57
2023-04-19T15:42:39.317Z,11.12
2023-04-19T15:45:07.140Z,11.52
2023-04-19T15:47:34.673Z,12.18
2023-04-19T15:50:01.687Z,10.80
2023-04-19T15:52:28.294Z,13.13
2023-04-19T15:54:54.894Z,10.98
2023-04-19T15:57:21.424Z,10.40
2023-04-19T15:59:47.966Z,10.55
2023-04-19T16:02:14.923Z,10.55
2023-04-19T16:04:41.712Z,10.48
2023-04-19T16:07:08.353Z,9.70
2023-04-19T16:09:50.902Z,12.60
2023-04-19T16:12:17.536Z,10.05
2023-04-19T16:14:44.218Z,9.27
2023-04-19T16:17:10.753Z,10.93
2023-04-19T16:19:37.320Z,10.70
2023-04-19T16:22:05.699Z,9.77
2023-04-19T16:24:32.260Z,9.98
2023-04-19T16:26:58.859Z,10.85
2023-04-19T16:29:25.453Z,9.25
2023-04-19T16:31:52.402Z,10.07
2023-04-19T16:34:19.880Z,8.80
2023-04-19T16:36:46.556Z,7.60
2023-04-19T16:39:13.161Z,8.65
2023-04-19T16:41:41.111Z,9.38
2023-04-19T16:44:07.673Z,8.80
2023-04-19T16:46:34.227Z,7.72
2023-04-19T16:49:01.061Z,7.57
2023-04-19T16:51:28.496Z,11.88
2023-04-19T16:53:55.938Z,8.45
2023-04-19T16:56:25.386Z,10.85
2023-04-19T16:58:52.076Z,12.43
2023-04-19T17:01:19.070Z,11.63
2023-04-19T17:03:46.709Z,10.65
2023-04-19T17:06:13.466Z,10.25
2023-04-19T17:08:40.062Z,8.43
2023-04-19T17:11:06.964Z,6.87
2023-04-19T17:13:33.942Z,5.35
2023-04-19T17:16:00.610Z,5.80
2023-04-19T17:18:27.197Z,6.85
2023-04-19T17:20:53.779Z,8.05
2023-04-19T17:23:21.222Z,22.73
2023-04-19T17:25:48.156Z,47.30
2023-04-19T17:28:14.751Z,18.83
2023-04-19T17:30:41.313Z,13.82
2023-04-19T17:33:08.082Z,8.70
2023-04-19T17:35:34.868Z,7.25
2023-04-19T17:38:01.414Z,8.43
2023-04-19T17:40:29.461Z,11.32
2023-04-19T17:42:58.955Z,10.32
2023-04-19T17:45:26.427Z,14.18
2023-04-19T17:47:55.321Z,10.43
2023-04-19T17:50:26.698Z,11.35
2023-04-19T17:52:54.635Z,11.20
2023-04-19T17:55:21.535Z,10.80
2023-04-19T17:57:48.154Z,10.68
2023-04-19T18:10:49.051Z,10.10
2023-04-19T18:13:15.728Z,8.63
2023-04-19T18:15:42.345Z,8.70
2023-04-19T18:18:08.988Z,10.35
2023-04-19T18:23:31.221Z,10.82
2023-04-19T18:28:35.477Z,13.62
2023-04-19T18:31:02.195Z,11.75
2023-04-19T18:33:28.914Z,16.55
2023-04-19T18:36:31.540Z,13.30
2023-04-19T18:42:14.186Z,13.90
2023-04-19T18:47:12.328Z,11.25
2023-04-19T18:49:39.194Z,13.25
2023-04-19T18:52:05.786Z,12.30
2023-04-19T18:54:32.571Z,14.50
2023-04-19T18:57:21.529Z,15.70
2023-04-19T18:59:46.104Z,17.27
2023-04-19T19:02:12.838Z,18.37
2023-04-19T19:04:52.012Z,23.25
2023-04-19T19:09:57.045Z,36.10
2023-04-19T19:12:26.227Z,32.55
2023-04-19T19:14:55.739Z,20.27
2023-04-19T19:17:28.196Z,20.42
2023-04-19T19:19:54.910Z,16.58
2023-04-19T19:22:28.289Z,16.25
2023-04-19T19:24:55.905Z,14.80
2023-04-19T19:27:22.571Z,17.55
2023-04-19T19:29:49.270Z,14.75
2023-04-19T19:32:16.133Z,14.57
2023-04-19T19:34:53.770Z,21.45
2023-04-19T19:37:21.880Z,20.05
2023-04-19T19:39:48.493Z,17.90
2023-04-19T19:42:39.398Z,21.83
2023-04-19T19:45:30.957Z,18.60
2023-04-19T19:48:01.378Z,14.40
2023-04-19T19:52:59.363Z,21.08
2023-04-19T19:55:26.069Z,22.52
2023-04-19T20:00:42.497Z,15.55
2023-04-19T20:03:09.090Z,13.88
2023-04-19T20:05:35.890Z,19.45
2023-04-19T20:08:13.049Z,13.93
2023-04-19T20:10:41.806Z,13.85
2023-04-19T20:13:08.655Z,13.80
2023-04-19T20:15:36.802Z,12.88
2023-04-19T20:18:04.658Z,13.30
2023-04-19T20:20:31.535Z,11.95
2023-04-19T20:22:58.141Z,12.23
2023-04-19T20:25:24.805Z,11.90
2023-04-19T20:27:51.472Z,12.05
2023-04-19T20:30:31.702Z,12.07
2023-04-19T20:32:58.445Z,15.90
2023-04-19T20:35:25.083Z,16.27
2023-04-19T20:37:51.643Z,16.55
2023-04-19T20:40:27.411Z,21.40
2023-04-19T20:43:28.168Z,17.40
2023-04-19T20:46:12.997Z,12.07
2023-04-19T20:48:39.634Z,21.35
2023-04-19T20:51:06.263Z,20.35
2023-04-19T20:53:32.973Z,20.67
2023-04-19T20:56:00.339Z,15.65
2023-04-19T20:58:26.896Z,12.23
2023-04-19T21:00:53.455Z,13.07
2023-04-19T21:03:20.288Z,17.15
2023-04-19T21:05:46.964Z,18.02
2023-04-19T21:08:15.084Z,13.65
2023-04-19T21:10:41.680Z,19.35
2023-04-19T21:13:08.228Z,19.55
2023-04-19T21:15:36.894Z,15.55
2023-04-19T21:18:03.910Z,22.95
2023-04-19T21:20:30.634Z,26.83
2023-04-19T21:22:57.305Z,25.05
2023-04-19T21:25:23.832Z,26.37
2023-04-19T21:27:50.378Z,23.23
2023-04-19T21:30:17.031Z,19.92
2023-04-19T21:32:43.745Z,16.23
2023-04-19T21:35:10.407Z,16.73
2023-04-19T21:37:37.756Z,15.43
2023-04-19T21:40:05.129Z,16.35
2023-04-19T21:42:31.681Z,18.33
2023-04-19T21:44:58.263Z,17.12
2023-04-19T21:47:24.859Z,15.60
2023-04-19T21:49:51.509Z,12.23
2023-04-19T21:52:18.057Z,13.65
2023-04-19T21:54:44.785Z,12.95
2023-04-19T21:57:11.481Z,12.40
2023-04-19T21:59:38.151Z,14.07
2023-04-19T22:02:04.886Z,13.05
2023-04-19T22:04:31.752Z,11.52
2023-04-19T22:07:02.637Z,11.38
2023-04-19T22:09:30.617Z,13.23
2023-04-19T22:11:57.197Z,13.57
2023-04-19T22:14:23.961Z,14.30
2023-04-19T22:16:50.952Z,12.65
2023-04-19T22:19:18.243Z,15.05
2023-04-19T22:21:46.695Z,14.00
2023-04-19T22:24:13.287Z,14.18
2023-04-19T22:26:39.857Z,13.50
2023-04-19T22:29:06.577Z,12.50
2023-04-19T22:31:33.207Z,11.38
2023-04-19T22:33:59.800Z,12.23
2023-04-19T22:36:26.506Z,13.23
2023-04-19T22:38:53.058Z,12.82
2023-04-19T22:41:19.614Z,11.73
2023-04-19T22:43:46.357Z,12.98
2023-04-19T22:46:16.287Z,11.18
2023-04-19T22:48:42.874Z,13.75
2023-04-19T22:51:09.676Z,19.23
2023-04-19T22:53:37.605Z,15.88
2023-04-19T22:56:04.933Z,16.73
2023-04-19T22:58:31.924Z,25.98
2023-04-19T23:00:58.570Z,48.03
2023-04-19T23:03:25.574Z,36.88
2023-04-19T23:05:54.235Z,30.17
2023-04-19T23:08:27.846Z,20.60
2023-04-19T23:10:55.042Z,18.15
2023-04-19T23:13:21.624Z,20.10
2023-04-19T23:15:57.228Z,14.00
2023-04-19T23:18:52.089Z,13.98
2023-04-19T23:21:24.014Z,12.05
2023-04-19T23:23:50.866Z,13.10
2023-04-19T23:26:17.504Z,13.27
2023-04-19T23:28:44.079Z,12.55
2023-04-19T23:31:11.647Z,13.07
2023-04-19T23:33:38.298Z,11.27
2023-04-19T23:36:05.168Z,14.52
2023-04-19T23:38:31.765Z,14.80
2023-04-19T23:40:58.417Z,12.82
2023-04-19T23:43:24.952Z,11.75
2023-04-19T23:45:51.484Z,13.35
2023-04-19T23:48:18.028Z,12.48
2023-04-19T23:51:03.118Z,13.07
2023-04-19T23:53:54.578Z,12.48
2023-04-19T23:56:25.007Z,13.50
2023-04-19T23:58:51.890Z,13.00
